createdAt,value
2023-03-18T00:04:46.755Z,1.49
2023-03-18T00:09:49.426Z,1.46
2023-03-18T00:14:52.221Z,1.46
2023-03-18T00:19:55.343Z,1.48
2023-03-18T00:24:58.122Z,1.49
2023-03-18T00:30:00.894Z,1.48
2023-03-18T00:35:03.941Z,1.42
2023-03-18T00:40:17.206Z,1.34
2023-03-18T00:45:19.933Z,1.25
2023-03-18T00:50:22.622Z,1.19
2023-03-18T00:55:26.093Z,1.16
2023-03-18T01:00:30.065Z,1.15
2023-03-18T01:05:34.346Z,1.13
2023-03-18T01:10:37.056Z,1.12
2023-03-18T01:15:40.682Z,1.15
2023-03-18T01:20:44.632Z,1.20
2023-03-18T01:25:47.362Z,1.29
2023-03-18T01:30:50.309Z,1.32
2023-03-18T01:35:55.827Z,1.30
2023-03-18T01:41:00.430Z,1.29
2023-03-18T01:46:29.125Z,1.26
2023-03-18T01:51:32.561Z,1.22
2023-03-18T01:56:39.467Z,1.19
2023-03-18T02:02:09.381Z,1.12
2023-03-18T02:07:20.290Z,1.02
2023-03-18T02:12:29.540Z,0.99
2023-03-18T02:17:35.718Z,0.98
2023-03-18T02:22:47.904Z,0.98
2023-03-18T02:27:59.426Z,0.95
2023-03-18T02:33:03.063Z,0.90
2023-03-18T02:38:05.948Z,0.84
2023-03-18T02:43:22.804Z,0.76
2023-03-18T02:48:33.271Z,0.68
2023-03-18T02:53:37.662Z,0.58
2023-03-18T02:58:41.238Z,0.50
2023-03-18T03:03:44.196Z,0.50
2023-03-18T03:08:47.027Z,0.53
2023-03-18T03:13:49.914Z,0.55
2023-03-18T03:18:52.731Z,0.50
2023-03-18T03:23:55.735Z,0.48
2023-03-18T03:28:58.675Z,0.43
2023-03-18T03:34:01.440Z,0.39
2023-03-18T03:39:04.397Z,0.33
2023-03-18T03:44:07.386Z,0.29
2023-03-18T03:49:10.155Z,0.25
2023-03-18T03:54:16.951Z,0.22
2023-03-18T03:59:19.869Z,0.24
2023-03-18T04:04:22.674Z,0.28
2023-03-18T04:09:25.465Z,0.31
2023-03-18T04:14:28.253Z,0.31
2023-03-18T04:19:31.578Z,0.30
2023-03-18T04:24:34.570Z,0.28
2023-03-18T04:29:37.989Z,0.25
2023-03-18T04:34:40.996Z,0.21
2023-03-18T04:39:44.618Z,0.19
2023-03-18T04:44:47.616Z,0.16
2023-03-18T04:49:50.303Z,0.15
2023-03-18T04:54:53.131Z,0.21
2023-03-18T04:59:56.840Z,0.31
2023-03-18T05:05:01.381Z,0.41
2023-03-18T05:10:07.054Z,0.49
2023-03-18T05:15:11.984Z,0.58
2023-03-18T05:20:14.961Z,0.67
2023-03-18T05:25:19.090Z,0.76
2023-03-18T05:30:21.799Z,0.88
2023-03-18T05:35:24.845Z,1.01
2023-03-18T05:40:27.593Z,1.16
2023-03-18T05:45:30.474Z,1.34
2023-03-18T05:50:42.544Z,1.54
2023-03-18T05:55:45.345Z,1.74
2023-03-18T06:00:48.043Z,1.91
2023-03-18T06:05:50.749Z,2.05
2023-03-18T06:10:54.391Z,2.18
2023-03-18T06:15:58.353Z,2.31
2023-03-18T06:21:01.330Z,2.46
2023-03-18T06:26:05.029Z,2.60
2023-03-18T06:31:08.646Z,2.73
2023-03-18T06:36:11.842Z,2.82
2023-03-18T06:41:16.334Z,2.89
2023-03-18T06:46:19.284Z,2.96
2023-03-18T06:51:22.048Z,3.05
2023-03-18T06:56:25.745Z,3.15
2023-03-18T07:01:30.348Z,3.27
2023-03-18T07:06:33.190Z,3.40
2023-03-18T07:11:36.009Z,3.54
2023-03-18T07:16:39.197Z,3.72
2023-03-18T07:21:43.127Z,3.87
2023-03-18T07:26:45.925Z,4.04
2023-03-18T07:31:48.951Z,4.22
2023-03-18T07:36:52.143Z,4.40
2023-03-18T07:41:54.939Z,4.62
2023-03-18T07:46:58.362Z,4.83
2023-03-18T07:52:02.083Z,5.03
2023-03-18T07:57:05.342Z,5.19
2023-03-18T08:02:09.231Z,5.35
2023-03-18T08:07:12.119Z,5.49
2023-03-18T08:12:18.766Z,5.66
2023-03-18T08:17:21.795Z,5.80
2023-03-18T08:22:25.751Z,5.91
2023-03-18T08:27:28.548Z,6.08
2023-03-18T08:32:31.377Z,6.26
2023-03-18T08:37:34.197Z,6.34
2023-03-18T08:42:36.852Z,6.48
2023-03-18T08:47:41.414Z,6.67
2023-03-18T08:52:44.106Z,6.81
2023-03-18T08:57:47.646Z,7.00
2023-03-18T09:02:50.371Z,7.21
2023-03-18T09:07:53.519Z,7.41
2023-03-18T09:12:56.249Z,7.67
2023-03-18T09:18:11.042Z,7.95
2023-03-18T09:23:18.401Z,8.28
2023-03-18T09:28:21.415Z,8.59
2023-03-18T09:33:25.661Z,8.94
2023-03-18T09:38:28.579Z,9.24
2023-03-18T09:43:33.983Z,9.50
2023-03-18T09:48:48.522Z,9.70
2023-03-18T09:54:27.763Z,9.91
2023-03-18T09:59:34.643Z,10.19
2023-03-18T10:04:46.576Z,10.37
2023-03-18T10:09:55.948Z,10.56
2023-03-18T10:15:11.033Z,10.70
2023-03-18T10:20:19.390Z,10.78
2023-03-18T10:25:36.671Z,11.00
2023-03-18T10:31:01.637Z,11.12
2023-03-18T10:36:27.950Z,11.07
2023-03-18T10:41:36.614Z,11.05
2023-03-18T10:46:41.164Z,11.00
2023-03-18T10:52:09.820Z,10.97
2023-03-18T10:57:15.072Z,11.01
2023-03-18T11:02:33.184Z,11.05
2023-03-18T11:08:03.713Z,11.03
2023-03-18T11:13:06.714Z,11.12
2023-03-18T11:18:19.695Z,11.16
2023-03-18T11:24:07.624Z,11.13
2023-03-18T11:29:16.767Z,11.16
2023-03-18T11:34:22.267Z,11.30
2023-03-18T11:39:27.413Z,11.33
2023-03-18T11:44:33.701Z,11.33
2023-03-18T11:49:37.265Z,11.40
2023-03-18T11:54:52.270Z,11.37
2023-03-18T12:00:13.709Z,11.25
2023-03-18T12:05:33.861Z,11.22
2023-03-18T12:10:41.876Z,11.32
2023-03-18T12:15:47.596Z,11.53
2023-03-18T12:20:54.795Z,11.83
2023-03-18T12:26:04.066Z,12.11
2023-03-18T12:31:20.270Z,12.34
2023-03-18T12:36:39.892Z,12.60
2023-03-18T12:41:54.800Z,12.68
2023-03-18T12:47:06.898Z,12.59
2023-03-18T12:52:20.949Z,12.49
2023-03-18T12:57:42.101Z,12.51
2023-03-18T13:02:57.579Z,12.72
2023-03-18T13:08:26.904Z,12.99
2023-03-18T13:13:33.338Z,13.26
2023-03-18T13:18:43.663Z,13.31
2023-03-18T13:24:30.187Z,13.33
2023-03-18T13:29:49.287Z,13.38
2023-03-18T13:35:14.609Z,13.33
2023-03-18T13:40:43.010Z,13.10
2023-03-18T13:45:50.044Z,12.85
2023-03-18T13:50:53.006Z,12.83
2023-03-18T13:56:01.343Z,12.93
2023-03-18T14:01:25.265Z,13.14
2023-03-18T14:06:46.807Z,13.22
2023-03-18T14:11:52.818Z,13.08
2023-03-18T14:16:56.424Z,12.96
2023-03-18T14:22:22.944Z,12.75
2023-03-18T14:27:25.748Z,12.51
2023-03-18T14:32:34.356Z,12.38
2023-03-18T14:38:01.920Z,12.33
2023-03-18T14:43:20.226Z,12.33
2023-03-18T14:48:31.754Z,12.38
2023-03-18T14:53:40.288Z,12.48
2023-03-18T14:58:45.819Z,12.54
2023-03-18T15:03:50.711Z,12.68
2023-03-18T15:09:00.245Z,12.81
2023-03-18T15:14:03.032Z,12.63
2023-03-18T15:19:06.754Z,12.35
2023-03-18T15:24:12.207Z,12.06
2023-03-18T15:29:24.377Z,11.77
2023-03-18T15:34:31.643Z,11.43
2023-03-18T15:39:41.017Z,11.10
2023-03-18T15:44:46.426Z,10.78
2023-03-18T15:49:54.499Z,10.60
2023-03-18T15:54:58.451Z,10.42
2023-03-18T16:00:01.469Z,10.27
2023-03-18T16:05:05.419Z,10.08
2023-03-18T16:10:10.135Z,9.87
2023-03-18T16:15:22.351Z,9.64
2023-03-18T16:20:28.973Z,9.42
2023-03-18T16:25:32.108Z,9.19
2023-03-18T16:30:40.087Z,8.96
2023-03-18T16:35:43.961Z,8.72
2023-03-18T16:40:47.229Z,8.48
2023-03-18T16:45:51.457Z,8.25
2023-03-18T16:50:56.528Z,8.03
2023-03-18T16:56:16.298Z,7.80
2023-03-18T17:01:19.623Z,7.56
2023-03-18T17:06:23.822Z,7.33
2023-03-18T17:11:27.447Z,7.12
2023-03-18T17:16:32.037Z,6.92
2023-03-18T17:21:34.776Z,6.76
2023-03-18T17:26:37.489Z,6.62
2023-03-18T17:31:40.377Z,6.49
2023-03-18T17:36:43.194Z,6.36
2023-03-18T17:41:45.985Z,6.23
2023-03-18T17:46:48.707Z,6.12
2023-03-18T17:51:52.221Z,6.03
2023-03-18T17:56:56.243Z,5.97
2023-03-18T18:01:59.162Z,5.92
2023-03-18T18:07:02.760Z,5.89
2023-03-18T18:12:06.703Z,5.87
2023-03-18T18:17:14.360Z,5.86
2023-03-18T18:22:20.893Z,5.86
2023-03-18T18:27:24.280Z,5.83
2023-03-18T18:32:27.214Z,5.78
2023-03-18T18:37:29.936Z,5.75
2023-03-18T18:42:32.698Z,5.72
2023-03-18T18:47:37.548Z,5.66
2023-03-18T18:52:40.251Z,5.61
2023-03-18T18:57:42.996Z,5.54
2023-03-18T19:02:48.709Z,5.51
2023-03-18T19:07:52.757Z,5.49
2023-03-18T19:12:55.507Z,5.48
2023-03-18T19:17:58.300Z,5.47
2023-03-18T19:23:01.108Z,5.45
2023-03-18T19:28:04.146Z,5.41
2023-03-18T19:33:17.560Z,5.33
2023-03-18T19:38:21.635Z,5.22
2023-03-18T19:43:24.658Z,5.13
2023-03-18T19:48:29.488Z,5.02
2023-03-18T19:53:32.723Z,4.90
2023-03-18T19:58:35.937Z,4.82
2023-03-18T20:03:38.761Z,4.74
2023-03-18T20:08:41.925Z,4.69
2023-03-18T20:13:45.057Z,4.62
2023-03-18T20:18:47.763Z,4.60
2023-03-18T20:23:52.578Z,4.55
2023-03-18T20:28:56.219Z,4.53
2023-03-18T20:33:58.897Z,4.52
2023-03-18T20:39:01.649Z,4.49
2023-03-18T20:44:04.607Z,4.43
2023-03-18T20:49:07.497Z,4.36
2023-03-18T20:54:25.478Z,4.30
2023-03-18T20:59:28.199Z,4.26
2023-03-18T21:04:31.361Z,4.25
2023-03-18T21:09:34.316Z,4.20
2023-03-18T21:14:37.389Z,4.13
2023-03-18T21:19:40.570Z,4.05
2023-03-18T21:24:43.195Z,3.98
2023-03-18T21:29:51.131Z,3.86
2023-03-18T21:34:55.010Z,3.75
2023-03-18T21:39:57.943Z,3.63
2023-03-18T21:45:00.755Z,3.52
2023-03-18T21:50:03.650Z,3.41
2023-03-18T21:55:07.427Z,3.30
2023-03-18T22:00:20.158Z,3.18
2023-03-18T22:05:24.604Z,3.07
2023-03-18T22:10:27.654Z,2.96
2023-03-18T22:15:36.542Z,2.88
2023-03-18T22:20:39.655Z,2.81
2023-03-18T22:25:43.252Z,2.73
2023-03-18T22:30:51.982Z,2.65
2023-03-18T22:35:55.443Z,2.60
2023-03-18T22:40:58.396Z,2.63
2023-03-18T22:46:06.361Z,2.73
2023-03-18T22:51:20.396Z,2.83
2023-03-18T22:56:23.918Z,2.94
2023-03-18T23:01:30.990Z,3.02
2023-03-18T23:06:34.548Z,3.11
2023-03-18T23:11:37.420Z,3.19
2023-03-18T23:16:40.290Z,3.28
2023-03-18T23:21:43.044Z,3.34
2023-03-18T23:26:46.632Z,3.40
2023-03-18T23:31:49.493Z,3.42
2023-03-18T23:36:52.344Z,3.43
2023-03-18T23:41:55.136Z,3.44
2023-03-18T23:46:57.909Z,3.45
2023-03-18T23:52:01.957Z,3.45
2023-03-18T23:57:06.697Z,3.42
